Time,TemperatureF,DewpointF,PressureIn,WindDirection,WindDirectionDegrees,WindSpeedMPH,WindSpeedGustMPH,Humidity,HourlyPrecipIn,Conditions,Clouds,dailyrainin,SolarRadiationWatts/m^2,SoftwareType,DateUTC
2013-04-09 00:00:00,62.1,57.2,29.84,SE,126,1.0,0.0,84,0.00,RA,,0.00,0.0,WeatherDisplay:10.37,2013-04-09 05:00:00,
2013-04-09 00:06:00,62.1,57.5,29.84,SE,126,0.0,0.0,85,0.00,RA,,0.00,0.0,WeatherDisplay:10.37,2013-04-09 05:06:00,
2013-04-09 00:11:00,62.2,57.6,29.83,SE,126,4.0,4.0,85,0.00,CLR,,0.00,0.0,WeatherDisplay:10.37,2013-04-09 05:11:00,
2013-04-09 00:16:00,62.2,57.6,29.83,ESE,112,4.6,4.6,85,0.00,CLR,,0.00,0.0,WeatherDisplay:10.37,2013-04-09 05:16:00,
2013-04-09 00:21:00,62.3,57.4,29.84,East,92,5.8,5.8,84,0.00,CLR,,0.00,0.0,WeatherDisplay:10.37,2013-04-09 05:21:00,
2013-04-09 00:26:00,62.4,57.5,29.83,ESE,102,8.1,8.1,84,0.00,CLR,,0.00,0.0,WeatherDisplay:10.37,2013-04-09 05:26:00,
2013-04-09 00:31:00,62.4,57.5,29.83,ENE,71,5.8,5.8,84,0.00,CLR,,0.00,0.0,WeatherDisplay:10.37,2013-04-09 05:31:00,
2013-04-09 00:36:00,62.4,57.5,29.83,ENE,72,9.2,9.2,84,0.00,CLR,,0.00,0.0,WeatherDisplay:10.37,2013-04-09 05:36:00,
2013-04-09 00:41:00,62.3,57.4,29.83,ENE,63,5.8,5.8,84,0.00,CLR,,0.00,0.0,WeatherDisplay:10.37,2013-04-09 05:41:00,
2013-04-09 00:46:00,62.1,57.2,29.83,East,83,9.2,9.2,84,0.00,CLR,,0.00,0.0,WeatherDisplay:10.37,2013-04-09 05:46:00,
2013-04-09 00:51:00,61.8,56.9,29.83,East,89,6.9,6.9,84,0.00,CLR,,0.00,0.0,WeatherDisplay:10.37,2013-04-09 05:51:00,
2013-04-09 00:57:00,61.6,57.0,29.83,East,86,4.6,4.6,85,0.00,CLR,,0.00,0.0,WeatherDisplay:10.37,2013-04-09 05:57:00,
2013-04-09 01:02:00,61.4,56.8,29.83,ENE,69,6.9,6.9,85,0.00,CLR,,0.00,0.0,WeatherDisplay:10.37,2013-04-09 06:02:00,
2013-04-09 01:07:00,61.2,56.7,29.82,ENE,68,5.8,5.8,85,0.00,CLR,,0.00,0.0,WeatherDisplay:10.37,2013-04-09 06:07:00,
2013-04-09 01:12:00,61.0,56.5,29.83,ENE,65,4.6,4.6,85,0.00,CLR,,0.00,0.0,WeatherDisplay:10.37,2013-04-09 06:12:00,
2013-04-09 01:17:00,60.8,56.3,29.82,East,88,0.0,2.2,85,0.00,CLR,,0.00,0.0,WeatherDisplay:10.37,2013-04-09 06:17:00,
2013-04-09 01:22:00,60.7,56.2,29.82,ENE,76,6.9,6.9,85,0.00,CLR,,0.00,0.0,WeatherDisplay:10.37,2013-04-09 06:22:00,
2013-04-09 01:27:00,60.5,56.3,29.82,ENE,63,8.1,8.1,86,0.00,CLR,,0.00,0.0,WeatherDisplay:10.37,2013-04-09 06:27:00,
2013-04-09 01:32:00,60.4,56.2,29.82,East,83,5.8,5.8,86,0.00,CLR,,0.00,0.0,WeatherDisplay:10.37,2013-04-09 06:32:00,
2013-04-09 01:37:00,60.4,56.2,29.83,ENE,64,7.0,7.0,86,0.00,CLR,,0.00,0.0,WeatherDisplay:10.37,2013-04-09 06:37:00,
2013-04-09 01:42:00,60.4,56.2,29.82,ENE,72,9.2,9.2,86,0.00,CLR,,0.00,0.0,WeatherDisplay:10.37,2013-04-09 06:42:00,
2013-04-09 01:47:00,60.5,56.3,29.83,ENE,71,6.9,6.9,86,0.00,CLR,,0.00,0.0,WeatherDisplay:10.37,2013-04-09 06:47:00,
2013-04-09 01:52:00,60.5,56.3,29.83,ENE,78,11.5,11.5,86,0.00,CLR,,0.00,0.0,WeatherDisplay:10.37,2013-04-09 06:52:00,
2013-04-09 01:58:00,60.5,56.3,29.82,ENE,65,10.4,10.4,86,0.00,CLR,,0.00,0.0,WeatherDisplay:10.37,2013-04-09 06:58:00,
2013-04-09 02:03:00,60.5,56.3,29.82,ESE,105,8.1,8.1,86,0.00,CLR,,0.00,0.0,WeatherDisplay:10.37,2013-04-09 07:03:00,
2013-04-09 02:08:00,60.5,56.3,29.82,East,86,11.5,11.5,86,0.00,CLR,,0.00,0.0,WeatherDisplay:10.37,2013-04-09 07:08:00,
2013-04-09 02:13:00,60.4,56.2,29.82,ENE,63,10.4,10.4,86,0.00,CLR,,0.00,0.0,WeatherDisplay:10.37,2013-04-09 07:13:00,
2013-04-09 02:18:00,60.2,56.0,29.82,ENE,78,11.5,11.5,86,0.00,CLR,,0.00,0.0,WeatherDisplay:10.37,2013-04-09 07:18:00,
2013-04-09 02:23:00,60.1,55.9,29.81,ENE,67,5.8,5.8,86,0.00,CLR,,0.00,0.0,WeatherDisplay:10.37,2013-04-09 07:23:00,
2013-04-09 02:28:00,59.8,55.6,29.81,ENE,77,12.7,12.7,86,0.00,CLR,,0.00,0.0,WeatherDisplay:10.37,2013-04-09 07:28:00,
2013-04-09 02:33:00,59.4,55.2,29.81,East,79,8.1,8.1,86,0.00,CLR,,0.00,0.0,WeatherDisplay:10.37,2013-04-09 07:33:00,
2013-04-09 02:38:00,59.0,55.1,29.82,ENE,77,8.1,8.1,87,0.00,CLR,,0.00,0.0,WeatherDisplay:10.37,2013-04-09 07:38:00,
2013-04-09 02:43:00,59.0,55.1,29.82,ENE,74,12.7,12.7,87,0.00,CLR,,0.00,0.0,WeatherDisplay:10.37,2013-04-09 07:43:00,
2013-04-09 02:48:00,58.5,54.6,29.82,ENE,69,10.4,10.4,87,0.00,CLR,,0.00,0.0,WeatherDisplay:10.37,2013-04-09 07:48:00,
2013-04-09 02:53:00,58.1,54.2,29.82,ENE,78,12.7,12.7,87,0.00,CLR,,0.00,0.0,WeatherDisplay:10.37,2013-04-09 07:53:00,
2013-04-09 02:58:00,57.8,54.0,29.82,ENE,76,11.5,11.5,87,0.00,CLR,,0.00,0.0,WeatherDisplay:10.37,2013-04-09 07:58:00,
2013-04-09 03:03:00,57.5,53.7,29.82,NE,47,10.4,10.4,87,0.00,CLR,,0.00,0.0,WeatherDisplay:10.37,2013-04-09 08:03:00,
2013-04-09 03:08:00,57.2,53.7,29.82,ENE,68,12.7,12.7,88,0.00,CLR,,0.00,0.0,WeatherDisplay:10.37,2013-04-09 08:08:00,
2013-04-09 03:13:00,56.9,53.1,29.82,ENE,60,11.5,11.5,87,0.00,CLR,,0.00,0.0,WeatherDisplay:10.37,2013-04-09 08:13:00,
2013-04-09 03:18:00,56.6,53.1,29.82,ENE,64,16.1,16.1,88,0.00,CLR,,0.00,0.0,WeatherDisplay:10.37,2013-04-09 08:18:00,
2013-04-09 03:23:00,56.2,52.7,29.82,ENE,69,15.0,15.0,88,0.00,CLR,,0.00,0.0,WeatherDisplay:10.37,2013-04-09 08:23:00,
2013-04-09 03:28:00,55.9,52.4,29.82,ENE,61,11.5,11.5,88,0.00,CLR,,0.00,0.0,WeatherDisplay:10.37,2013-04-09 08:28:00,
2013-04-09 03:33:00,55.5,52.0,29.82,ENE,62,7.0,7.0,88,0.00,CLR,,0.00,0.0,WeatherDisplay:10.37,2013-04-09 08:33:00,
2013-04-09 03:38:00,55.2,51.7,29.82,ENE,61,13.8,13.8,88,0.00,CLR,,0.00,0.0,WeatherDisplay:10.37,2013-04-09 08:38:00,
2013-04-09 03:43:00,54.8,51.3,29.82,East,85,10.4,10.4,88,0.00,CLR,,0.00,0.0,WeatherDisplay:10.37,2013-04-09 08:43:00,
2013-04-09 03:48:00,54.5,51.0,29.82,NE,56,10.4,10.4,88,0.00,CLR,,0.00,0.0,WeatherDisplay:10.37,2013-04-09 08:48:00,
2013-04-09 03:53:00,54.3,50.8,29.82,East,95,11.5,11.5,88,0.00,CLR,,0.00,0.0,WeatherDisplay:10.37,2013-04-09 08:53:00,
2013-04-09 03:58:00,54.0,50.8,29.82,East,84,11.5,11.5,89,0.00,CLR,,0.00,0.0,WeatherDisplay:10.37,2013-04-09 08:58:00,
2013-04-09 04:03:00,53.8,50.6,29.83,ENE,76,6.9,6.9,89,0.00,CLR,,0.00,0.0,WeatherDisplay:10.37,2013-04-09 09:03:00,
2013-04-09 04:08:00,53.6,50.4,29.82,ENE,67,11.5,11.5,89,0.00,CLR,,0.00,0.0,WeatherDisplay:10.37,2013-04-09 09:08:00,
2013-04-09 04:13:00,53.5,50.3,29.82,ENE,71,5.8,5.8,89,0.00,CLR,,0.00,0.0,WeatherDisplay:10.37,2013-04-09 09:13:00,
2013-04-09 04:18:00,53.4,50.2,29.82,ESE,104,11.5,11.5,89,0.00,CLR,,0.00,0.0,WeatherDisplay:10.37,2013-04-09 09:18:00,
2013-04-09 04:23:00,53.2,50.0,29.82,East,79,15.0,15.0,89,0.00,CLR,,0.00,0.0,WeatherDisplay:10.37,2013-04-09 09:23:00,
2013-04-09 04:28:00,53.1,49.9,29.82,ENE,71,11.5,11.5,89,0.00,CLR,,0.00,0.0,WeatherDisplay:10.37,2013-04-09 09:28:00,
2013-04-09 04:33:00,52.9,50.0,29.82,East,90,11.5,11.5,90,0.00,CLR,,0.00,0.0,WeatherDisplay:10.37,2013-04-09 09:33:00,
2013-04-09 04:38:00,52.7,49.8,29.82,ENE,68,8.1,8.1,90,0.00,CLR,,0.00,0.0,WeatherDisplay:10.37,2013-04-09 09:38:00,
2013-04-09 04:43:00,52.5,49.7,29.82,ENE,68,5.8,5.8,90,0.00,CLR,,0.00,0.0,WeatherDisplay:10.37,2013-04-09 09:43:00,
2013-04-09 04:48:00,52.4,49.6,29.83,NE,51,8.1,8.1,90,0.00,CLR,,0.00,0.0,WeatherDisplay:10.37,2013-04-09 09:48:00,
2013-04-09 04:53:00,52.2,49.4,29.83,ENE,63,11.5,11.5,90,0.00,CLR,,0.00,0.0,WeatherDisplay:10.37,2013-04-09 09:53:00,
2013-04-09 04:58:00,52.0,49.2,29.83,East,83,11.5,11.5,90,0.00,CLR,,0.00,0.0,WeatherDisplay:10.37,2013-04-09 09:58:00,
2013-04-09 05:03:00,51.8,49.0,29.83,East,80,11.5,11.5,90,0.00,CLR,,0.00,0.0,WeatherDisplay:10.37,2013-04-09 10:03:00,
2013-04-09 05:08:00,51.7,48.9,29.83,East,91,5.8,5.8,90,0.00,CLR,,0.00,0.0,WeatherDisplay:10.37,2013-04-09 10:08:00,
2013-04-09 05:13:00,51.7,49.2,29.83,East,87,10.0,10.0,91,0.00,CLR,,0.00,0.0,WeatherDisplay:10.37,2013-04-09 10:13:00,
2013-04-09 05:18:00,51.6,49.1,29.83,ENE,75,6.9,6.9,91,0.00,CLR,,0.00,0.0,WeatherDisplay:10.37,2013-04-09 10:18:00,
2013-04-09 05:23:00,51.5,49.0,29.83,East,83,11.5,11.5,91,0.00,CLR,,0.00,0.0,WeatherDisplay:10.37,2013-04-09 10:23:00,
2013-04-09 05:28:00,51.4,48.6,29.82,ENE,78,11.5,11.5,90,0.00,CLR,,0.00,0.0,WeatherDisplay:10.37,2013-04-09 10:28:00,
2013-04-09 05:33:00,51.3,48.8,29.83,ENE,75,9.2,9.2,91,0.00,CLR,,0.00,0.0,WeatherDisplay:10.37,2013-04-09 10:33:00,
2013-04-09 05:38:00,51.3,48.8,29.83,East,81,4.6,4.6,91,0.00,CLR,,0.00,0.0,WeatherDisplay:10.37,2013-04-09 10:38:00,
2013-04-09 05:43:00,51.3,48.8,29.83,NE,52,11.5,11.5,91,0.00,CLR,,0.00,0.0,WeatherDisplay:10.37,2013-04-09 10:43:00,
2013-04-09 05:48:00,51.3,48.8,29.83,ENE,72,9.2,9.2,91,0.00,CLR,,0.00,0.0,WeatherDisplay:10.37,2013-04-09 10:48:00,
2013-04-09 05:53:00,51.2,48.7,29.82,ENE,65,11.5,11.5,91,0.00,CLR,,0.00,0.0,WeatherDisplay:10.37,2013-04-09 10:53:00,
2013-04-09 05:59:00,51.2,48.7,29.81,East,92,10.4,10.4,91,0.00,CLR,,0.00,0.0,WeatherDisplay:10.37,2013-04-09 10:59:00,
2013-04-09 06:04:00,51.0,48.5,29.81,ENE,67,6.9,6.9,91,0.00,CLR,,0.00,0.0,WeatherDisplay:10.37,2013-04-09 11:04:00,
2013-04-09 06:09:00,51.0,48.5,29.82,East,94,6.0,6.0,91,0.00,CLR,,0.00,0.0,WeatherDisplay:10.37,2013-04-09 11:09:00,
2013-04-09 06:14:00,50.9,48.7,29.82,ENE,74,6.9,6.9,92,0.00,CLR,,0.00,0.0,WeatherDisplay:10.37,2013-04-09 11:14:00,
2013-04-09 06:19:00,50.8,48.6,29.82,ENE,70,9.2,9.2,92,0.00,CLR,,0.00,0.0,WeatherDisplay:10.37,2013-04-09 11:19:00,
2013-04-09 06:24:00,50.7,48.5,29.83,ESE,106,6.9,6.9,92,0.00,CLR,,0.00,0.0,WeatherDisplay:10.37,2013-04-09 11:24:00,
2013-04-09 06:29:00,50.6,48.4,29.82,East,80,11.5,11.5,92,0.00,OVC,,0.00,0.0,WeatherDisplay:10.37,2013-04-09 11:29:00,
2013-04-09 06:34:00,50.6,48.4,29.82,East,79,4.6,4.6,92,0.00,OVC,,0.00,0.0,WeatherDisplay:10.37,2013-04-09 11:34:00,
2013-04-09 06:39:00,50.5,48.3,29.82,ENE,76,6.9,6.9,92,0.00,OVC,,0.00,0.0,WeatherDisplay:10.37,2013-04-09 11:39:00,
2013-04-09 06:44:00,50.5,48.3,29.82,ENE,69,5.8,5.8,92,0.00,OVC,,0.00,0.0,WeatherDisplay:10.37,2013-04-09 11:44:00,
2013-04-09 06:49:00,50.5,48.3,29.82,East,96,4.6,4.6,92,0.00,OVC,,0.00,0.0,WeatherDisplay:10.37,2013-04-09 11:49:00,
2013-04-09 06:54:00,50.5,48.6,29.81,East,97,4.6,4.6,93,0.00,BKN,,0.00,5.0,WeatherDisplay:10.37,2013-04-09 11:54:00,
2013-04-09 06:59:00,50.5,48.6,29.81,ENE,68,9.2,9.2,93,0.00,BKN,,0.00,9.0,WeatherDisplay:10.37,2013-04-09 11:59:00,
2013-04-09 07:04:00,50.5,48.6,29.82,ENE,63,8.0,8.0,93,0.00,BKN,,0.00,14.0,WeatherDisplay:10.37,2013-04-09 12:04:00,
2013-04-09 07:09:00,50.5,48.6,29.82,East,82,9.0,9.0,93,0.00,BKN,,0.00,18.0,WeatherDisplay:10.37,2013-04-09 12:09:00,
2013-04-09 07:15:00,50.6,48.7,29.82,ENE,75,10.4,10.4,93,0.00,BKN,,0.00,18.0,WeatherDisplay:10.37,2013-04-09 12:15:00,
2013-04-09 07:20:00,50.7,48.7,29.82,ENE,71,6.9,6.9,93,0.00,BKN,,0.00,16.0,WeatherDisplay:10.37,2013-04-09 12:20:00,
2013-04-09 07:25:00,50.8,48.8,29.82,ENE,75,5.8,5.8,93,0.00,BKN,,0.00,16.0,WeatherDisplay:10.37,2013-04-09 12:25:00,
2013-04-09 07:30:00,50.9,48.9,29.83,ENE,71,0.0,0.0,93,0.00,BKN,,0.00,18.0,WeatherDisplay:10.37,2013-04-09 12:30:00,
2013-04-09 07:35:00,51.0,49.0,29.83,NE,49,4.6,4.6,93,0.00,BKN,,0.00,25.0,WeatherDisplay:10.37,2013-04-09 12:35:00,
2013-04-09 07:40:00,51.1,49.1,29.83,NE,35,6.9,6.9,93,0.00,BKN,,0.00,28.0,WeatherDisplay:10.37,2013-04-09 12:40:00,
2013-04-09 07:45:00,51.3,49.3,29.83,NE,36,0.0,0.0,93,0.00,BKN,,0.00,26.0,WeatherDisplay:10.37,2013-04-09 12:45:00,
2013-04-09 07:50:00,51.4,49.4,29.83,ENE,57,4.6,4.6,93,0.00,BKN,,0.00,30.0,WeatherDisplay:10.37,2013-04-09 12:50:00,
2013-04-09 07:55:00,51.5,49.5,29.83,ENE,65,5.8,5.8,93,0.00,BKN,,0.00,30.0,WeatherDisplay:10.37,2013-04-09 12:55:00,
2013-04-09 08:00:00,51.5,49.5,29.83,NE,47,3.5,3.5,93,0.00,BKN,,0.00,39.0,WeatherDisplay:10.37,2013-04-09 13:00:00,
2013-04-09 08:05:00,51.7,49.7,29.83,NE,53,0.0,0.0,93,0.00,BKN,,0.00,54.0,WeatherDisplay:10.37,2013-04-09 13:05:00,
2013-04-09 08:10:00,51.7,49.7,29.83,NE,44,0.0,0.0,93,0.00,BKN,,0.00,83.0,WeatherDisplay:10.37,2013-04-09 13:10:00,
2013-04-09 08:15:00,51.9,49.9,29.83,NE,49,6.9,6.9,93,0.00,BKN,,0.00,100.0,WeatherDisplay:10.37,2013-04-09 13:15:00,
2013-04-09 08:20:00,52.0,50.0,29.83,NE,48,5.8,5.8,93,0.00,BKN,,0.00,123.0,WeatherDisplay:10.37,2013-04-09 13:20:00,
2013-04-09 08:25:00,52.2,50.2,29.83,ENE,59,10.4,10.4,93,0.00,BKN,,0.00,132.0,WeatherDisplay:10.37,2013-04-09 13:25:00,
2013-04-09 08:30:00,52.3,50.3,29.82,ENE,75,7.0,7.0,93,0.00,BKN,,0.00,116.0,WeatherDisplay:10.37,2013-04-09 13:30:00,
2013-04-09 08:35:00,52.5,50.2,29.82,NE,52,9.2,9.2,92,0.00,BKN,,0.00,114.0,WeatherDisplay:10.37,2013-04-09 13:35:00,
2013-04-09 08:40:00,52.6,50.3,29.82,NE,48,6.9,6.9,92,0.00,BKN,,0.00,137.0,WeatherDisplay:10.37,2013-04-09 13:40:00,
2013-04-09 08:45:00,52.8,50.5,29.81,NE,54,6.9,6.9,92,0.00,BKN,,0.00,142.0,WeatherDisplay:10.37,2013-04-09 13:45:00,
2013-04-09 08:50:00,53.0,50.7,29.81,NE,51,8.1,8.1,92,0.00,BKN,,0.00,153.0,WeatherDisplay:10.37,2013-04-09 13:50:00,
2013-04-09 08:55:00,53.1,50.8,29.81,ENE,71,9.2,9.2,92,0.00,BKN,,0.00,149.0,WeatherDisplay:10.37,2013-04-09 13:55:00,
2013-04-09 09:00:00,53.3,51.0,29.81,East,80,4.0,4.0,92,0.00,BKN,,0.00,163.0,WeatherDisplay:10.37,2013-04-09 14:00:00,
2013-04-09 09:05:00,53.6,51.3,29.80,ENE,68,9.2,9.2,92,0.00,BKN,,0.00,171.0,WeatherDisplay:10.37,2013-04-09 14:05:00,
2013-04-09 09:10:00,53.8,51.5,29.80,ENE,68,3.5,3.5,92,0.00,BKN,,0.00,207.0,WeatherDisplay:10.37,2013-04-09 14:10:00,
2013-04-09 09:16:00,54.2,51.9,29.80,NE,55,11.5,11.5,92,0.00,BKN,,0.00,197.0,WeatherDisplay:10.37,2013-04-09 14:16:00,
2013-04-09 09:21:00,54.4,51.8,29.80,East,83,9.2,9.2,91,0.00,BKN,,0.00,186.0,WeatherDisplay:10.37,2013-04-09 14:21:00,
2013-04-09 09:27:00,54.5,51.9,29.79,ENE,76,10.4,10.4,91,0.00,BKN,,0.00,169.0,WeatherDisplay:10.37,2013-04-09 14:27:00,
2013-04-09 09:32:00,54.6,51.7,29.79,ENE,66,3.5,3.5,90,0.00,BKN,,0.00,178.0,WeatherDisplay:10.37,2013-04-09 14:32:00,
2013-04-09 09:37:00,54.7,51.8,29.79,East,82,9.2,9.2,90,0.00,BKN,,0.00,206.0,WeatherDisplay:10.37,2013-04-09 14:37:00,
2013-04-09 09:42:00,54.9,52.0,29.79,ENE,71,9.2,9.2,90,0.00,BKN,,0.00,204.0,WeatherDisplay:10.37,2013-04-09 14:42:00,
2013-04-09 09:47:00,55.1,52.2,29.79,East,80,0.0,0.0,90,0.00,BKN,,0.00,204.0,WeatherDisplay:10.37,2013-04-09 14:47:00,
2013-04-09 09:52:00,55.4,52.5,29.79,NE,55,6.9,6.9,90,0.00,BKN,,0.00,213.0,WeatherDisplay:10.37,2013-04-09 14:52:00,
2013-04-09 09:57:00,55.6,52.7,29.79,ENE,74,6.9,6.9,90,0.00,BKN,,0.00,225.0,WeatherDisplay:10.37,2013-04-09 14:57:00,
2013-04-09 10:02:00,55.8,52.9,29.78,ENE,73,0.0,0.0,90,0.00,BKN,,0.00,190.0,WeatherDisplay:10.37,2013-04-09 15:02:00,
2013-04-09 10:07:00,56.1,53.2,29.78,ENE,60,2.3,2.8,90,0.00,BKN,,0.00,144.0,WeatherDisplay:10.37,2013-04-09 15:07:00,
2013-04-09 10:13:00,56.2,53.3,29.78,ENE,59,8.1,8.1,90,0.00,BKN,,0.00,146.0,WeatherDisplay:10.37,2013-04-09 15:13:00,
2013-04-09 10:18:00,56.4,53.5,29.78,East,91,6.9,6.9,90,0.00,BKN,,0.00,137.0,WeatherDisplay:10.37,2013-04-09 15:18:00,
2013-04-09 10:23:00,56.5,53.3,29.78,East,91,6.9,6.9,89,0.00,BKN,,0.00,128.0,WeatherDisplay:10.37,2013-04-09 15:23:00,
2013-04-09 10:28:00,56.7,53.8,29.78,East,90,5.8,5.8,90,0.00,BKN,,0.00,248.0,WeatherDisplay:10.37,2013-04-09 15:28:00,
2013-04-09 10:33:00,57.0,54.1,29.79,East,80,3.5,3.5,90,0.00,BKN,,0.00,281.0,WeatherDisplay:10.37,2013-04-09 15:33:00,
2013-04-09 10:38:00,57.4,54.5,29.79,ENE,68,4.6,4.6,90,0.00,BKN,,0.00,290.0,WeatherDisplay:10.37,2013-04-09 15:38:00,
2013-04-09 10:43:00,57.7,54.5,29.78,ESE,107,4.6,4.6,89,0.00,BKN,,0.00,343.0,WeatherDisplay:10.37,2013-04-09 15:43:00,
2013-04-09 10:48:00,58.1,54.9,29.78,East,81,4.0,4.0,89,0.00,BKN,,0.00,381.0,WeatherDisplay:10.37,2013-04-09 15:48:00,
2013-04-09 10:53:00,58.7,55.2,29.78,East,82,6.9,6.9,88,0.00,BKN,,0.00,483.0,WeatherDisplay:10.37,2013-04-09 15:53:00,
2013-04-09 10:59:00,59.1,55.5,29.78,ENE,64,8.1,8.1,88,0.00,SCT,,0.00,504.0,WeatherDisplay:10.37,2013-04-09 15:59:00,
2013-04-09 11:04:00,59.6,55.7,29.78,East,91,8.1,8.1,87,0.00,SCT,,0.00,415.0,WeatherDisplay:10.37,2013-04-09 16:04:00,
2013-04-09 11:09:00,60.0,56.1,29.78,ENE,63,6.9,6.9,87,0.00,BKN,,0.00,338.0,WeatherDisplay:10.37,2013-04-09 16:09:00,
2013-04-09 11:14:00,60.3,56.4,29.78,ENE,68,7.0,7.0,87,0.00,BKN,,0.00,367.0,WeatherDisplay:10.37,2013-04-09 16:14:00,
2013-04-09 11:19:00,60.5,56.6,29.78,ENE,67,4.6,4.6,87,0.00,BKN,,0.00,418.0,WeatherDisplay:10.37,2013-04-09 16:19:00,
2013-04-09 11:24:00,61.1,57.2,29.78,East,83,5.8,5.8,87,0.00,BKN,,0.00,388.0,WeatherDisplay:10.37,2013-04-09 16:24:00,
2013-04-09 11:30:00,61.6,57.7,29.77,ENE,74,5.8,5.8,87,0.00,BKN,,0.00,297.0,WeatherDisplay:10.37,2013-04-09 16:30:00,
2013-04-09 11:35:00,62.0,57.8,29.77,ENE,72,3.5,3.5,86,0.00,BKN,,0.00,258.0,WeatherDisplay:10.37,2013-04-09 16:35:00,
2013-04-09 11:40:00,62.3,58.1,29.77,ENE,75,3.5,3.5,86,0.00,BKN,,0.00,397.0,WeatherDisplay:10.37,2013-04-09 16:40:00,
2013-04-09 11:45:00,62.9,58.6,29.77,ENE,77,3.5,3.5,86,0.00,BKN,,0.00,596.0,WeatherDisplay:10.37,2013-04-09 16:45:00,
2013-04-09 11:50:00,63.4,58.8,29.77,ENE,72,0.0,0.0,85,0.00,SCT,,0.00,589.0,WeatherDisplay:10.37,2013-04-09 16:50:00,
2013-04-09 11:55:00,63.9,59.3,29.75,East,88,5.8,5.8,85,0.00,SCT,,0.00,415.0,WeatherDisplay:10.37,2013-04-09 16:55:00,
2013-04-09 12:00:00,64.4,59.5,29.75,East,87,0.0,0.0,84,0.00,BKN,,0.00,334.0,WeatherDisplay:10.37,2013-04-09 17:00:00,
2013-04-09 12:05:00,65.0,60.0,29.75,East,86,1.2,0.0,84,0.00,BKN,,0.00,624.0,WeatherDisplay:10.37,2013-04-09 17:05:00,
2013-04-09 12:10:00,65.5,60.2,29.75,East,86,0.0,0.0,83,0.00,BKN,,0.00,385.0,WeatherDisplay:10.37,2013-04-09 17:10:00,
2013-04-09 12:15:00,65.9,60.2,29.75,East,86,0.0,0.0,82,0.00,BKN,,0.00,345.0,WeatherDisplay:10.37,2013-04-09 17:15:00,
2013-04-09 12:20:00,66.4,60.7,29.75,East,86,0.0,0.0,82,0.00,BKN,,0.00,429.0,WeatherDisplay:10.37,2013-04-09 17:20:00,
2013-04-09 12:25:00,67.0,61.3,29.75,East,86,0.0,0.0,82,0.00,BKN,,0.00,309.0,WeatherDisplay:10.37,2013-04-09 17:25:00,
2013-04-09 12:30:00,68.0,61.9,29.75,WSW,240,8.1,8.1,81,0.00,BKN,,0.00,413.0,WeatherDisplay:10.37,2013-04-09 17:30:00,
2013-04-09 12:35:00,69.7,63.3,29.75,SSW,192,12.7,12.7,80,0.00,BKN,,0.00,385.0,WeatherDisplay:10.37,2013-04-09 17:35:00,
2013-04-09 12:40:00,70.9,63.3,29.75,SW,235,13.8,13.8,77,0.00,BKN,,0.00,343.0,WeatherDisplay:10.37,2013-04-09 17:40:00,
2013-04-09 12:45:00,71.5,63.2,29.74,SSW,209,13.8,13.8,75,0.00,BKN,,0.00,388.0,WeatherDisplay:10.37,2013-04-09 17:45:00,
2013-04-09 12:50:00,72.0,63.3,29.74,SSE,156,11.5,11.5,74,0.00,BKN,,0.00,664.0,WeatherDisplay:10.37,2013-04-09 17:50:00,
2013-04-09 12:55:00,72.7,63.9,29.74,SSW,194,10.4,10.4,74,0.00,BKN,,0.00,617.0,WeatherDisplay:10.37,2013-04-09 17:55:00,
2013-04-09 13:00:00,73.3,63.7,29.74,South,173,15.0,15.0,72,0.00,SCT,,0.00,585.0,WeatherDisplay:10.37,2013-04-09 18:00:00,
2013-04-09 13:05:00,73.7,64.1,29.74,SW,229,6.9,6.9,72,0.00,SCT,,0.00,309.0,WeatherDisplay:10.37,2013-04-09 18:05:00,
2013-04-09 13:10:00,73.6,63.6,29.74,SSW,210,10.4,10.4,71,0.00,BKN,,0.00,165.0,WeatherDisplay:10.37,2013-04-09 18:10:00,
2013-04-09 13:15:00,73.3,63.7,29.74,SSW,202,4.6,4.6,72,0.00,BKN,,0.00,179.0,WeatherDisplay:10.37,2013-04-09 18:15:00,
2013-04-09 13:20:00,73.2,63.2,29.74,SW,225,19.6,19.6,71,0.00,BKN,,0.00,234.0,WeatherDisplay:10.37,2013-04-09 18:20:00,
2013-04-09 13:25:00,73.2,63.6,29.74,South,172,11.5,11.5,72,0.00,BKN,,0.00,223.0,WeatherDisplay:10.37,2013-04-09 18:25:00,
2013-04-09 13:31:00,73.5,63.9,29.74,SW,223,13.8,13.8,72,0.00,BKN,,0.00,415.0,WeatherDisplay:10.37,2013-04-09 18:31:00,
2013-04-09 13:37:00,74.0,64.0,29.73,South,188,9.2,9.2,71,0.00,BKN,,0.00,313.0,WeatherDisplay:10.37,2013-04-09 18:37:00,
2013-04-09 13:42:00,74.4,64.4,29.73,SSW,193,11.5,11.5,71,0.00,BKN,,0.00,612.0,WeatherDisplay:10.37,2013-04-09 18:42:00,
2013-04-09 13:47:00,74.9,64.5,29.73,SSW,194,19.6,19.6,70,0.00,SCT,,0.00,564.0,WeatherDisplay:10.37,2013-04-09 18:47:00,
2013-04-09 13:52:00,75.5,64.6,29.73,SW,220,19.6,19.6,69,0.00,SCT,,0.00,882.0,WeatherDisplay:10.37,2013-04-09 18:52:00,
2013-04-09 13:57:00,75.5,64.2,29.73,SSW,203,17.3,17.3,68,0.00,SCT,,0.00,406.0,WeatherDisplay:10.37,2013-04-09 18:57:00,
2013-04-09 14:02:00,75.6,64.3,29.73,SW,217,16.1,16.1,68,0.00,SCT,,0.00,893.0,WeatherDisplay:10.37,2013-04-09 19:02:00,
2013-04-09 14:07:00,75.9,64.6,29.73,SW,234,12.7,12.7,68,0.00,SCT,,0.00,490.0,WeatherDisplay:10.37,2013-04-09 19:07:00,
2013-04-09 14:12:00,76.2,64.4,29.73,South,188,13.8,13.8,67,0.00,SCT,,0.00,853.0,WeatherDisplay:10.37,2013-04-09 19:12:00,
2013-04-09 14:17:00,76.5,64.3,29.73,SSW,210,15.0,15.0,66,0.00,FEW,,0.00,826.0,WeatherDisplay:10.37,2013-04-09 19:17:00,
2013-04-09 14:23:00,77.0,64.3,29.73,SSW,207,16.1,16.1,65,0.00,FEW,,0.00,742.0,WeatherDisplay:10.37,2013-04-09 19:23:00,
2013-04-09 14:28:00,77.1,64.0,29.73,South,190,9.2,9.2,64,0.00,FEW,,0.00,673.0,WeatherDisplay:10.37,2013-04-09 19:28:00,
2013-04-09 14:33:00,77.3,63.7,29.73,SSW,207,19.6,19.6,63,0.00,SCT,,0.00,429.0,WeatherDisplay:10.37,2013-04-09 19:33:00,
2013-04-09 14:38:00,77.1,64.0,29.73,SW,223,13.0,13.0,64,0.00,BKN,,0.00,427.0,WeatherDisplay:10.37,2013-04-09 19:38:00,
2013-04-09 14:43:00,76.8,63.7,29.73,SSW,207,12.7,12.7,64,0.00,BKN,,0.00,483.0,WeatherDisplay:10.37,2013-04-09 19:43:00,
2013-04-09 14:48:00,76.9,64.2,29.73,SSW,205,9.2,9.2,65,0.00,BKN,,0.00,406.0,WeatherDisplay:10.37,2013-04-09 19:48:00,
2013-04-09 14:53:00,76.9,63.8,29.73,SW,219,19.6,19.6,64,0.00,BKN,,0.00,364.0,WeatherDisplay:10.37,2013-04-09 19:53:00,
2013-04-09 14:58:00,76.8,63.7,29.73,South,190,11.5,11.5,64,0.00,BKN,,0.00,336.0,WeatherDisplay:10.37,2013-04-09 19:58:00,
2013-04-09 15:03:00,76.7,63.6,29.73,SW,230,15.0,15.0,64,0.00,BKN,,0.00,464.0,WeatherDisplay:10.37,2013-04-09 20:03:00,
2013-04-09 15:08:00,76.8,63.7,29.73,SSW,193,18.4,18.4,64,0.00,BKN,,0.00,422.0,WeatherDisplay:10.37,2013-04-09 20:08:00,
2013-04-09 15:13:00,77.0,63.4,29.73,SW,219,17.3,17.3,63,0.00,SCT,,0.00,503.0,WeatherDisplay:10.37,2013-04-09 20:13:00,
2013-04-09 15:18:00,77.3,63.7,29.73,SSE,167,15.0,15.0,63,0.00,SCT,,0.00,390.0,WeatherDisplay:10.37,2013-04-09 20:18:00,
2013-04-09 15:23:00,77.4,63.4,29.73,South,190,13.8,13.8,62,0.00,BKN,,0.00,223.0,WeatherDisplay:10.37,2013-04-09 20:23:00,
2013-04-09 15:28:00,77.2,63.2,29.73,SW,221,13.0,13.0,62,0.00,BKN,,0.00,243.0,WeatherDisplay:10.37,2013-04-09 20:28:00,
2013-04-09 15:33:00,76.9,63.3,29.73,SSW,208,11.5,11.5,63,0.00,BKN,,0.00,185.0,WeatherDisplay:10.37,2013-04-09 20:33:00,
2013-04-09 15:38:00,76.8,63.7,29.73,SSW,213,3.5,3.5,64,0.00,BKN,,0.00,163.0,WeatherDisplay:10.37,2013-04-09 20:38:00,
2013-04-09 15:43:00,76.8,63.7,29.73,SSW,209,11.5,11.5,64,0.00,BKN,,0.00,121.0,WeatherDisplay:10.37,2013-04-09 20:43:00,
2013-04-09 15:48:00,76.7,63.2,29.73,South,190,5.8,5.8,63,0.00,BKN,,0.00,123.0,WeatherDisplay:10.37,2013-04-09 20:48:00,
2013-04-09 15:53:00,76.6,63.5,29.74,SW,236,11.5,11.5,64,0.00,BKN,,0.00,104.0,WeatherDisplay:10.37,2013-04-09 20:53:00,
2013-04-09 15:58:00,76.6,63.5,29.74,SSW,213,11.5,11.5,64,0.00,BKN,,0.00,104.0,WeatherDisplay:10.37,2013-04-09 20:58:00,
2013-04-09 16:03:00,76.4,63.3,29.74,SSW,208,12.7,12.7,64,0.00,BKN,,0.00,100.0,WeatherDisplay:10.37,2013-04-09 21:03:00,
2013-04-09 16:09:00,76.2,62.7,29.75,North,355,11.5,11.5,63,0.00,BKN,,0.00,77.0,WeatherDisplay:10.37,2013-04-09 21:09:00,
2013-04-09 16:14:00,73.5,60.6,29.76,NNE,26,18.4,18.4,64,0.00,BKN,,0.00,60.0,WeatherDisplay:10.37,2013-04-09 21:14:00,
2013-04-09 16:19:00,70.0,59.0,29.76,North,355,11.5,11.5,68,0.00,BKN,,0.00,93.0,WeatherDisplay:10.37,2013-04-09 21:19:00,
2013-04-09 16:24:00,67.7,58.0,29.76,NE,53,11.5,11.5,71,0.00,BKN,,0.00,127.0,WeatherDisplay:10.37,2013-04-09 21:24:00,
2013-04-09 16:29:00,65.5,57.4,29.77,NNE,27,11.5,11.5,75,0.00,BKN,,0.00,113.0,WeatherDisplay:10.37,2013-04-09 21:29:00,
2013-04-09 16:34:00,64.0,57.0,29.77,NE,40,13.8,13.8,78,0.00,BKN,,0.00,155.0,WeatherDisplay:10.37,2013-04-09 21:34:00,
2013-04-09 16:39:00,63.2,56.9,29.77,NE,41,11.5,11.5,80,0.00,BKN,,0.00,179.0,WeatherDisplay:10.37,2013-04-09 21:39:00,
2013-04-09 16:45:00,63.1,57.2,29.77,NE,45,5.8,5.8,81,0.00,BKN,,0.00,236.0,WeatherDisplay:10.37,2013-04-09 21:45:00,
2013-04-09 16:50:00,63.1,57.5,29.77,NE,42,6.9,6.9,82,0.00,BKN,,0.00,167.0,WeatherDisplay:10.37,2013-04-09 21:50:00,
2013-04-09 16:55:00,63.2,57.6,29.78,NE,40,11.5,11.5,82,0.00,BKN,,0.00,160.0,WeatherDisplay:10.37,2013-04-09 21:55:00,
2013-04-09 17:00:00,63.0,57.1,29.77,NE,55,11.5,11.5,81,0.00,BKN,,0.00,165.0,WeatherDisplay:10.37,2013-04-09 22:00:00,
2013-04-09 17:05:00,62.9,57.3,29.77,NE,42,10.4,10.4,82,0.00,BKN,,0.00,134.0,WeatherDisplay:10.37,2013-04-09 22:05:00,
2013-04-09 17:10:00,62.9,57.3,29.77,NE,41,9.2,9.2,82,0.00,BKN,,0.00,213.0,WeatherDisplay:10.37,2013-04-09 22:10:00,
2013-04-09 17:15:00,63.0,57.4,29.78,NE,48,12.7,12.7,82,0.00,BKN,,0.00,211.0,WeatherDisplay:10.37,2013-04-09 22:15:00,
2013-04-09 17:20:00,63.0,57.4,29.78,NE,35,9.2,9.2,82,0.00,BKN,,0.00,141.0,WeatherDisplay:10.37,2013-04-09 22:20:00,
2013-04-09 17:25:00,62.8,57.2,29.78,NE,49,17.3,17.3,82,0.00,BKN,,0.00,144.0,WeatherDisplay:10.37,2013-04-09 22:25:00,
2013-04-09 17:30:00,62.5,56.9,29.78,NE,41,6.9,6.9,82,0.00,BKN,,0.00,262.0,WeatherDisplay:10.37,2013-04-09 22:30:00,
2013-04-09 17:35:00,62.5,56.9,29.78,ENE,71,11.5,11.5,82,0.00,BKN,,0.00,309.0,WeatherDisplay:10.37,2013-04-09 22:35:00,
2013-04-09 17:40:00,62.5,56.9,29.79,NE,42,9.2,9.2,82,0.00,SCT,,0.00,181.0,WeatherDisplay:10.37,2013-04-09 22:40:00,
2013-04-09 17:45:00,61.9,55.7,29.80,NE,46,17.3,17.3,80,0.00,BKN,,0.00,121.0,WeatherDisplay:10.37,2013-04-09 22:45:00,
2013-04-09 17:50:00,60.9,54.7,29.80,NE,40,12.7,12.7,80,0.00,BKN,,0.00,114.0,WeatherDisplay:10.37,2013-04-09 22:50:00,
2013-04-09 17:55:00,60.1,54.2,29.81,NE,40,18.4,18.4,81,0.00,BKN,,0.00,98.0,WeatherDisplay:10.37,2013-04-09 22:55:00,
2013-04-09 18:00:00,59.3,54.1,29.81,NNE,26,16.0,16.0,83,0.00,BKN,,0.00,88.0,WeatherDisplay:10.37,2013-04-09 23:00:00,
2013-04-09 18:05:00,59.0,54.2,29.82,NE,36,12.0,12.0,84,0.00,BKN,,0.00,121.0,WeatherDisplay:10.37,2013-04-09 23:05:00,
2013-04-09 18:10:00,58.5,53.7,29.82,NE,51,13.8,14.6,84,0.00,BKN,,0.00,104.0,WeatherDisplay:10.37,2013-04-09 23:10:00,
2013-04-09 18:15:00,57.9,53.1,29.82,ENE,60,16.1,16.1,84,0.00,BKN,,0.00,90.0,WeatherDisplay:10.37,2013-04-09 23:15:00,
2013-04-09 18:20:00,57.4,52.9,29.82,NE,44,11.5,11.5,85,0.00,BKN,,0.00,72.0,WeatherDisplay:10.37,2013-04-09 23:20:00,
2013-04-09 18:25:00,57.1,52.6,29.82,ENE,66,12.7,12.7,85,0.00,BKN,,0.00,81.0,WeatherDisplay:10.37,2013-04-09 23:25:00,
2013-04-09 18:30:00,56.6,52.1,29.82,NE,36,15.0,15.0,85,0.00,BKN,,0.00,79.0,WeatherDisplay:10.37,2013-04-09 23:30:00,
2013-04-09 18:36:00,56.1,51.7,29.82,NNE,28,13.8,13.8,85,0.00,BKN,,0.00,72.0,WeatherDisplay:10.37,2013-04-09 23:36:00,
2013-04-09 18:41:00,55.5,51.4,29.83,NE,42,10.4,10.4,86,0.00,BKN,,0.00,51.0,WeatherDisplay:10.37,2013-04-09 23:41:00,
2013-04-09 18:46:00,55.2,51.1,29.83,NE,38,10.4,10.4,86,0.00,BKN,,0.00,40.0,WeatherDisplay:10.37,2013-04-09 23:46:00,
2013-04-09 18:51:00,54.9,50.8,29.83,NNE,33,13.8,13.8,86,0.00,BKN,,0.00,37.0,WeatherDisplay:10.37,2013-04-09 23:51:00,
2013-04-09 18:56:00,54.3,50.2,29.84,NE,44,11.5,11.5,86,0.00,BKN,,0.00,25.0,WeatherDisplay:10.37,2013-04-09 23:56:00,
2013-04-09 19:01:00,53.7,49.6,29.83,NE,46,12.0,12.0,86,0.00,BKN,,0.00,18.0,WeatherDisplay:10.37,2013-04-10 00:01:00,
2013-04-09 19:06:00,53.2,49.4,29.84,NNE,22,15.0,15.0,87,0.00,BKN,,0.00,14.0,WeatherDisplay:10.37,2013-04-10 00:06:00,
2013-04-09 19:11:00,52.6,48.5,29.84,NNE,29,15.0,15.0,86,0.00,BKN,,0.00,12.0,WeatherDisplay:10.37,2013-04-10 00:11:00,
2013-04-09 19:16:00,51.8,48.1,29.84,NE,53,18.4,18.4,87,0.00,BKN,,0.00,9.0,WeatherDisplay:10.37,2013-04-10 00:16:00,
2013-04-09 19:21:00,51.5,48.1,29.84,ENE,71,11.5,11.5,88,0.00,BKN,,0.00,5.0,WeatherDisplay:10.37,2013-04-10 00:21:00,
2013-04-09 19:27:00,51.3,47.9,29.85,NE,43,12.7,12.7,88,0.00,OVC,,0.00,0.0,WeatherDisplay:10.37,2013-04-10 00:27:00,
2013-04-09 19:32:00,51.0,47.6,29.85,NE,41,23.0,23.0,88,0.00,OVC,,0.00,0.0,WeatherDisplay:10.37,2013-04-10 00:32:00,
2013-04-09 19:37:00,50.6,47.2,29.85,NE,36,15.0,15.0,88,0.00,CLR,,0.00,0.0,WeatherDisplay:10.37,2013-04-10 00:37:00,
2013-04-09 19:42:00,50.2,46.8,29.85,NE,48,16.1,16.1,88,0.00,CLR,,0.00,0.0,WeatherDisplay:10.37,2013-04-10 00:42:00,
2013-04-09 19:47:00,49.9,46.5,29.85,ENE,65,19.6,19.6,88,0.00,CLR,,0.00,0.0,WeatherDisplay:10.37,2013-04-10 00:47:00,
2013-04-09 19:52:00,49.5,46.1,29.85,NE,34,21.9,21.9,88,0.00,CLR,,0.00,0.0,WeatherDisplay:10.37,2013-04-10 00:52:00,
2013-04-09 19:57:00,49.1,45.7,29.85,NNE,25,19.6,19.6,88,0.00,CLR,,0.00,0.0,WeatherDisplay:10.37,2013-04-10 00:57:00,
2013-04-09 20:02:00,48.9,46.7,29.85,NE,41,5.8,6.2,92,0.00,CLR,,0.00,0.0,WeatherDisplay:10.37,2013-04-10 01:02:00,
2013-04-09 20:07:00,48.8,45.7,29.85,NE,38,18.4,18.4,89,0.00,CLR,,0.00,0.0,WeatherDisplay:10.37,2013-04-10 01:07:00,
2013-04-09 20:12:00,48.7,45.6,29.86,NE,49,10.4,10.4,89,0.00,CLR,,0.00,0.0,WeatherDisplay:10.37,2013-04-10 01:12:00,
2013-04-09 20:17:00,48.7,45.6,29.86,ENE,65,20.7,20.7,89,0.00,CLR,,0.00,0.0,WeatherDisplay:10.37,2013-04-10 01:17:00,
2013-04-09 20:23:00,48.6,45.5,29.86,NE,34,10.4,10.4,89,0.00,CLR,,0.00,0.0,WeatherDisplay:10.37,2013-04-10 01:23:00,
2013-04-09 20:28:00,48.4,45.3,29.86,NNE,26,13.8,13.8,89,0.00,CLR,,0.00,0.0,WeatherDisplay:10.37,2013-04-10 01:28:00,
2013-04-09 20:33:00,48.3,45.2,29.86,NE,53,15.0,15.0,89,0.00,CLR,,0.00,0.0,WeatherDisplay:10.37,2013-04-10 01:33:00,
2013-04-09 20:38:00,48.2,45.1,29.87,NE,48,11.5,11.5,89,0.00,CLR,,0.00,0.0,WeatherDisplay:10.37,2013-04-10 01:38:00,
2013-04-09 20:43:00,48.1,45.3,29.86,NE,55,15.0,15.0,90,0.00,CLR,,0.00,0.0,WeatherDisplay:10.37,2013-04-10 01:43:00,
2013-04-09 20:48:00,48.1,45.3,29.86,ENE,65,11.5,11.5,90,0.00,CLR,,0.00,0.0,WeatherDisplay:10.37,2013-04-10 01:48:00,
2013-04-09 20:53:00,48.2,45.4,29.87,NE,53,10.4,10.4,90,0.00,CLR,,0.00,0.0,WeatherDisplay:10.37,2013-04-10 01:53:00,
2013-04-09 20:58:00,48.2,45.4,29.87,ENE,57,12.7,12.7,90,0.00,CLR,,0.00,0.0,WeatherDisplay:10.37,2013-04-10 01:58:00,
2013-04-09 21:03:00,48.3,45.5,29.86,ENE,69,16.1,16.1,90,0.00,CLR,,0.00,0.0,WeatherDisplay:10.37,2013-04-10 02:03:00,
2013-04-09 21:08:00,48.5,45.7,29.87,East,80,11.5,11.5,90,0.00,CLR,,0.00,0.0,WeatherDisplay:10.37,2013-04-10 02:08:00,
2013-04-09 21:13:00,48.5,45.7,29.87,North,360,16.1,16.1,90,0.00,CLR,,0.00,0.0,WeatherDisplay:10.37,2013-04-10 02:13:00,
2013-04-09 21:18:00,48.5,45.7,29.88,ENE,73,10.4,10.4,90,0.00,CLR,,0.00,0.0,WeatherDisplay:10.37,2013-04-10 02:18:00,
2013-04-09 21:24:00,48.5,45.7,29.88,NE,55,16.1,16.1,90,0.00,CLR,,0.00,0.0,WeatherDisplay:10.37,2013-04-10 02:24:00,
2013-04-09 21:29:00,48.4,45.6,29.87,ENE,59,15.0,15.0,90,0.00,CLR,,0.00,0.0,WeatherDisplay:10.37,2013-04-10 02:29:00,
2013-04-09 21:34:00,48.2,45.1,29.88,ENE,63,19.0,19.0,89,0.00,CLR,,0.00,0.0,WeatherDisplay:10.37,2013-04-10 02:34:00,
2013-04-09 21:39:00,47.9,44.8,29.89,ENE,60,17.3,17.3,89,0.00,CLR,,0.00,0.0,WeatherDisplay:10.37,2013-04-10 02:39:00,
2013-04-09 21:44:00,47.8,44.7,29.89,ENE,70,8.1,10.3,89,0.00,CLR,,0.00,0.0,WeatherDisplay:10.37,2013-04-10 02:44:00,
2013-04-09 21:49:00,47.6,44.2,29.89,ENE,67,17.3,17.3,88,0.00,CLR,,0.00,0.0,WeatherDisplay:10.37,2013-04-10 02:49:00,
2013-04-09 21:54:00,47.5,44.1,29.89,ENE,76,11.5,11.5,88,0.00,CLR,,0.00,0.0,WeatherDisplay:10.37,2013-04-10 02:54:00,
2013-04-09 21:59:00,47.3,43.9,29.90,ENE,60,20.7,20.7,88,0.00,CLR,,0.00,0.0,WeatherDisplay:10.37,2013-04-10 02:59:00,
2013-04-09 22:04:00,47.0,43.6,29.90,NE,36,19.6,19.6,88,0.00,CLR,,0.00,0.0,WeatherDisplay:10.37,2013-04-10 03:04:00,
2013-04-09 22:09:00,46.7,43.3,29.90,ENE,65,19.6,19.6,88,0.00,CLR,,0.00,0.0,WeatherDisplay:10.37,2013-04-10 03:09:00,
2013-04-09 22:14:00,46.6,43.2,29.90,NE,38,19.0,19.0,88,0.00,CLR,,0.00,0.0,WeatherDisplay:10.37,2013-04-10 03:14:00,
2013-04-09 22:19:00,46.5,43.1,29.89,ENE,72,11.5,11.5,88,0.00,CLR,,0.00,0.0,WeatherDisplay:10.37,2013-04-10 03:19:00,
2013-04-09 22:24:00,46.5,43.1,29.89,NE,42,13.8,13.8,88,0.00,CLR,,0.00,0.0,WeatherDisplay:10.37,2013-04-10 03:24:00,
2013-04-09 22:29:00,46.4,43.0,29.90,ENE,59,10.4,10.4,88,0.00,CLR,,0.00,0.0,WeatherDisplay:10.37,2013-04-10 03:29:00,
2013-04-09 22:34:00,46.3,42.9,29.89,East,83,19.6,19.6,88,0.00,CLR,,0.00,0.0,WeatherDisplay:10.37,2013-04-10 03:34:00,
2013-04-09 22:39:00,46.3,43.2,29.88,ENE,76,10.4,10.4,89,0.00,CLR,,0.00,0.0,WeatherDisplay:10.37,2013-04-10 03:39:00,
2013-04-09 22:44:00,46.2,43.1,29.89,ENE,76,12.7,12.7,89,0.00,CLR,,0.00,0.0,WeatherDisplay:10.37,2013-04-10 03:44:00,
2013-04-09 22:49:00,46.0,42.9,29.88,ENE,71,10.4,10.4,89,0.00,CLR,,0.00,0.0,WeatherDisplay:10.37,2013-04-10 03:49:00,
2013-04-09 22:54:00,46.0,42.9,29.89,ENE,74,10.4,10.4,89,0.00,CLR,,0.00,0.0,WeatherDisplay:10.37,2013-04-10 03:54:00,
2013-04-09 22:59:00,45.8,42.7,29.89,NE,48,15.0,15.0,89,0.00,CLR,,0.00,0.0,WeatherDisplay:10.37,2013-04-10 03:59:00,
2013-04-09 23:00:00,45.7,42.6,29.88,NE,56,17.3,17.3,89,0.00,CLR,,0.00,0.0,WeatherDisplay:10.37,2013-04-10 04:00:00,
2013-04-09 23:05:00,45.5,42.4,29.89,East,85,11.5,11.5,89,0.00,CLR,,0.00,0.0,WeatherDisplay:10.37,2013-04-10 04:05:00,
2013-04-09 23:10:00,45.4,42.3,29.89,East,83,11.5,11.5,89,0.00,CLR,,0.00,0.0,WeatherDisplay:10.37,2013-04-10 04:10:00,
2013-04-09 23:15:00,45.3,42.5,29.89,ENE,76,16.1,16.1,90,0.00,CLR,,0.00,0.0,WeatherDisplay:10.37,2013-04-10 04:15:00,
2013-04-09 23:20:00,45.1,42.3,29.88,ENE,66,17.3,17.3,90,0.00,CLR,,0.00,0.0,WeatherDisplay:10.37,2013-04-10 04:20:00,
2013-04-09 23:25:00,45.0,42.2,29.88,ENE,74,15.0,15.0,90,0.00,CLR,,0.00,0.0,WeatherDisplay:10.37,2013-04-10 04:25:00,
2013-04-09 23:30:00,44.9,42.1,29.87,NE,47,19.6,19.6,90,0.00,CLR,,0.00,0.0,WeatherDisplay:10.37,2013-04-10 04:30:00,
2013-04-09 23:35:00,44.7,42.2,29.87,East,98,17.3,17.3,91,0.00,CLR,,0.00,0.0,WeatherDisplay:10.37,2013-04-10 04:35:00,
2013-04-09 23:40:00,44.6,42.1,29.87,East,82,19.6,19.6,91,0.00,CLR,,0.00,0.0,WeatherDisplay:10.37,2013-04-10 04:40:00,
2013-04-09 23:45:00,44.5,42.0,29.87,ENE,69,17.3,17.3,91,0.00,CLR,,0.00,0.0,WeatherDisplay:10.37,2013-04-10 04:45:00,
2013-04-09 23:50:00,44.5,42.0,29.87,ENE,57,18.4,18.4,91,0.00,CLR,,0.00,0.0,WeatherDisplay:10.37,2013-04-10 04:50:00,
2013-04-09 23:55:00,44.5,42.0,29.87,ENE,61,18.4,18.4,91,0.00,CLR,,0.00,0.0,WeatherDisplay:10.37,2013-04-10 04:55:00,